FACT

Cape Town International Airport

Cape Town, South Africa
TAF FACT 141600Z 1418/1524 18018KT CAVOK PROB30 TEMPO 1418/1422 BKN010 BECMG 1503/1505 18008KT BECMG 1512/1514 18020KT TX26/1512Z TN15/1504Z
Issued Valid From Valid To
Dec-14 @ 16:00 UTC
(6 hours ago)
Dec-14 @ 18:00 UTC
(4 hours ago)
Dec-16 @ 00:00 UTC
(-1 days ago)
Dec-14 @ 18:00 to Dec-15 @ 03:00
TAF FACT 141600Z 1418/1524 18018KT CAVOK
Wind Visibility Clouds Conditions
180° at 18 knots 10,000+ meters
  • No significant clouds
Temporary  (Probability 30%) Dec-14 @ 18:00 to Dec-14 @ 22:00
PROB30 TEMPO 1418/1422 BKN010
Clouds
  • Broken at 1,000' AGL
Becoming Dec-15 @ 03:00 to Dec-15 @ 12:00
BECMG 1503/1505 18008KT
Wind Visibility Clouds Conditions
180° at 8 knots 10,000+ meters
  • No significant clouds
Becoming Dec-15 @ 12:00 to Dec-16 @ 00:00
BECMG 1512/1514 18020KT TX26/1512Z TN15/1504Z
Wind Visibility Clouds Conditions
180° at 20 knots 10,000+ meters
  • No significant clouds
TAF FACT 141600Z 1418/1524 18018KT CAVOK PROB30 TEMPO 1418/1422 BKN010 BECMG 1503/1505 18008KT BECMG 1512/1514 18020KT TX26/1512Z TN15/1504Z
Issued Dec-14 @ 16:00 UTC
(6 hours ago)
Valid From Dec-14 @ 18:00 UTC
(4 hours ago)
Valid To Dec-16 @ 00:00 UTC
(-1 days ago)
Dec-14 @ 18:00 - Dec-15 @ 03:00
Wind Visibility
180° at 18 knots 10,000+ meters
Clouds
  • No significant clouds
Conditions
Probability 30% Temporary Dec-14 @ 18:00 - Dec-14 @ 22:00
Clouds
  • Broken at 1,000' AGL
Becoming Dec-15 @ 03:00 - Dec-15 @ 12:00
Wind Visibility
180° at 8 knots 10,000+ meters
Clouds
  • No significant clouds
Conditions
Becoming Dec-15 @ 12:00 - Dec-16 @ 00:00
Wind Visibility
180° at 20 knots 10,000+ meters
Clouds
  • No significant clouds
Conditions